createdAt,value
2019-01-15T00:01:00.919Z,79.77
2019-01-15T00:03:28.748Z,86.97
2019-01-15T00:05:56.562Z,97.63
2019-01-15T00:08:24.703Z,104.30
2019-01-15T00:10:52.901Z,95.17
2019-01-15T00:13:20.660Z,107.83
2019-01-15T00:15:48.567Z,110.87
2019-01-15T00:18:16.654Z,105.77
2019-01-15T00:20:44.754Z,97.97
2019-01-15T00:23:13.367Z,95.07
2019-01-15T00:25:41.109Z,90.67
2019-01-15T00:28:09.689Z,91.33
2019-01-15T00:30:37.490Z,82.93
2019-01-15T00:33:05.275Z,73.00
2019-01-15T00:35:33.487Z,71.77
2019-01-15T00:38:01.238Z,67.33
2019-01-15T00:40:29.370Z,78.07
2019-01-15T00:42:57.453Z,76.97
2019-01-15T00:45:25.191Z,76.80
2019-01-15T00:47:53.039Z,77.93
2019-01-15T00:50:21.515Z,92.87
2019-01-15T00:52:49.314Z,75.43
2019-01-15T00:55:17.074Z,85.87
2019-01-15T00:57:44.808Z,81.70
2019-01-15T01:00:20.958Z,81.27
2019-01-15T01:02:48.982Z,81.00
2019-01-15T01:05:17.632Z,75.83
2019-01-15T01:07:45.450Z,76.63
2019-01-15T01:10:13.896Z,89.13
2019-01-15T01:12:41.739Z,91.00
2019-01-15T01:15:11.450Z,107.17
2019-01-15T01:17:39.566Z,112.37
2019-01-15T01:20:09.163Z,114.80
2019-01-15T01:22:37.273Z,106.93
2019-01-15T01:25:06.590Z,109.37
2019-01-15T01:27:35.334Z,104.53
2019-01-15T01:30:38.276Z,112.97
2019-01-15T01:33:06.207Z,110.00
2019-01-15T01:35:33.971Z,110.63
2019-01-15T01:38:04.231Z,112.53
2019-01-15T01:40:32.301Z,118.60
2019-01-15T01:43:00.326Z,110.80
2019-01-15T01:45:28.085Z,109.97
2019-01-15T01:47:55.703Z,102.47
2019-01-15T01:50:23.479Z,97.27
2019-01-15T01:52:52.196Z,98.77
2019-01-15T01:55:20.663Z,101.83
2019-01-15T01:57:48.263Z,96.40
2019-01-15T02:00:20.325Z,106.43
2019-01-15T02:02:48.151Z,97.27
2019-01-15T02:05:16.276Z,98.20
2019-01-15T02:07:44.180Z,89.00
2019-01-15T02:10:14.138Z,87.57
2019-01-15T02:12:41.742Z,91.33
2019-01-15T02:15:11.250Z,78.87
2019-01-15T02:17:39.160Z,77.37
2019-01-15T02:20:08.928Z,80.07
2019-01-15T02:22:36.616Z,84.93
2019-01-15T02:25:05.666Z,69.50
2019-01-15T02:27:34.243Z,79.93
2019-01-15T02:30:01.991Z,72.10
2019-01-15T02:32:29.693Z,63.67
2019-01-15T02:34:57.358Z,64.60
2019-01-15T02:37:25.596Z,62.10
2019-01-15T02:39:53.194Z,52.43
2019-01-15T02:42:21.636Z,50.07
2019-01-15T02:44:49.405Z,46.80
2019-01-15T02:47:17.367Z,44.37
2019-01-15T02:49:46.330Z,43.67
2019-01-15T02:52:14.127Z,39.83
2019-01-15T02:54:42.132Z,42.33
2019-01-15T02:57:10.052Z,41.80
2019-01-15T02:59:38.051Z,38.63
2019-01-15T03:02:07.007Z,33.63
2019-01-15T03:04:35.047Z,38.20
2019-01-15T03:07:03.024Z,41.53
2019-01-15T03:09:30.740Z,39.83
2019-01-15T03:11:58.627Z,40.50
2019-01-15T03:14:26.712Z,33.80
2019-01-15T03:16:54.828Z,41.40
2019-01-15T03:19:22.823Z,42.23
2019-01-15T03:21:50.950Z,40.23
2019-01-15T03:24:18.896Z,34.40
2019-01-15T03:26:46.980Z,40.30
2019-01-15T03:29:14.727Z,43.33
2019-01-15T03:31:42.809Z,39.00
2019-01-15T03:34:10.855Z,37.57
2019-01-15T03:36:39.367Z,36.60
2019-01-15T03:39:08.547Z,41.50
2019-01-15T03:41:36.667Z,44.83
2019-01-15T03:44:05.500Z,45.43
2019-01-15T03:46:33.292Z,36.83
2019-01-15T03:49:01.039Z,50.10
2019-01-15T03:51:30.449Z,43.90
2019-01-15T03:53:58.682Z,41.57
2019-01-15T03:56:26.432Z,49.17
2019-01-15T03:58:54.261Z,38.97
2019-01-15T04:01:22.107Z,33.60
2019-01-15T04:03:49.888Z,34.37
2019-01-15T04:06:17.661Z,41.30
2019-01-15T04:08:45.488Z,33.80
2019-01-15T04:11:13.251Z,40.67
2019-01-15T04:13:41.215Z,48.20
2019-01-15T04:16:09.828Z,41.40
2019-01-15T04:18:37.695Z,40.07
2019-01-15T04:21:05.564Z,41.30
2019-01-15T04:23:34.714Z,45.53
2019-01-15T04:26:02.542Z,44.43
2019-01-15T04:28:30.711Z,48.17
2019-01-15T04:30:59.079Z,43.03
2019-01-15T04:33:27.774Z,53.57
2019-01-15T04:35:55.967Z,42.00
2019-01-15T04:38:23.997Z,43.17
2019-01-15T04:40:51.768Z,42.77
2019-01-15T04:43:20.192Z,49.33
2019-01-15T04:45:47.937Z,47.27
2019-01-15T04:48:15.692Z,41.93
2019-01-15T04:50:43.679Z,48.97
2019-01-15T04:53:11.723Z,41.40
2019-01-15T04:55:39.624Z,49.43
2019-01-15T04:58:07.657Z,41.57
2019-01-15T05:00:35.567Z,43.40
2019-01-15T05:03:07.359Z,46.77
2019-01-15T05:05:35.624Z,43.93
2019-01-15T05:08:04.203Z,44.77
2019-01-15T05:10:32.433Z,44.93
2019-01-15T05:13:00.770Z,43.43
2019-01-15T05:15:28.770Z,47.30
2019-01-15T05:17:56.800Z,46.73
2019-01-15T05:20:25.871Z,46.93
2019-01-15T05:22:53.832Z,47.30
2019-01-15T05:25:22.367Z,48.77
2019-01-15T05:27:51.983Z,45.50
2019-01-15T05:30:27.364Z,42.27
2019-01-15T05:32:55.487Z,41.77
2019-01-15T05:35:24.010Z,40.53
2019-01-15T05:37:51.807Z,46.10
2019-01-15T05:40:19.816Z,47.33
2019-01-15T05:42:48.358Z,42.97
2019-01-15T05:45:23.871Z,42.97
2019-01-15T05:47:53.919Z,55.43
2019-01-15T05:50:30.151Z,42.13
2019-01-15T05:52:58.002Z,40.53
2019-01-15T05:55:25.900Z,61.90
2019-01-15T05:57:53.630Z,44.00
2019-01-15T06:00:21.391Z,54.27
2019-01-15T06:02:50.978Z,46.67
2019-01-15T06:05:18.977Z,49.67
2019-01-15T06:07:46.768Z,44.27
2019-01-15T06:10:15.466Z,44.97
2019-01-15T06:12:43.899Z,52.60
2019-01-15T06:15:12.565Z,60.33
2019-01-15T06:17:40.355Z,43.27
2019-01-15T06:20:10.740Z,60.60
2019-01-15T06:22:39.115Z,48.10
2019-01-15T06:25:07.903Z,45.47
2019-01-15T06:27:35.736Z,45.33
2019-01-15T06:30:05.962Z,46.63
2019-01-15T06:32:33.871Z,46.27
2019-01-15T06:35:01.649Z,39.27
2019-01-15T06:37:29.767Z,44.27
2019-01-15T06:39:57.936Z,41.17
2019-01-15T06:42:25.683Z,35.27
2019-01-15T06:44:53.599Z,43.90
2019-01-15T06:47:21.475Z,38.60
2019-01-15T06:49:49.609Z,39.20
2019-01-15T06:52:17.553Z,29.93
2019-01-15T06:54:45.684Z,35.00
2019-01-15T06:57:13.422Z,28.83
2019-01-15T06:59:41.430Z,33.67
2019-01-15T07:02:09.148Z,35.20
2019-01-15T07:04:43.649Z,38.83
2019-01-15T07:07:06.440Z,21.67
2019-01-15T07:09:34.694Z,25.20
2019-01-15T07:12:02.472Z,24.23
2019-01-15T07:14:30.929Z,28.62
2019-01-15T07:16:58.707Z,23.87
2019-01-15T07:19:26.622Z,21.13
2019-01-15T07:21:55.042Z,25.87
2019-01-15T07:24:23.202Z,20.50
2019-01-15T07:26:51.243Z,22.17
2019-01-15T07:29:19.611Z,21.57
2019-01-15T07:31:47.608Z,23.03
2019-01-15T07:34:15.990Z,16.73
2019-01-15T07:36:44.009Z,18.97
2019-01-15T07:39:12.085Z,23.50
2019-01-15T07:41:40.195Z,24.60
2019-01-15T07:44:08.312Z,16.33
2019-01-15T07:46:36.212Z,30.57
2019-01-15T07:49:04.619Z,16.93
2019-01-15T07:51:32.547Z,18.63
2019-01-15T07:54:00.235Z,17.00
2019-01-15T07:56:28.882Z,14.87
2019-01-15T07:58:57.447Z,17.13
2019-01-15T08:01:25.591Z,19.53
2019-01-15T08:03:54.210Z,20.90
2019-01-15T08:06:22.123Z,22.70
2019-01-15T08:08:50.174Z,18.33
2019-01-15T08:11:17.916Z,18.57
2019-01-15T08:13:46.479Z,20.23
2019-01-15T08:16:14.233Z,12.93
2019-01-15T08:18:42.149Z,19.20
2019-01-15T08:21:10.010Z,19.00
2019-01-15T08:23:38.149Z,23.00
2019-01-15T08:26:06.644Z,23.00
2019-01-15T08:28:34.879Z,23.27
2019-01-15T08:31:03.048Z,20.67
2019-01-15T08:33:31.216Z,14.43
2019-01-15T08:35:59.023Z,21.27
2019-01-15T08:38:26.821Z,20.43
2019-01-15T08:40:55.108Z,37.83
2019-01-15T08:43:22.884Z,34.23
2019-01-15T08:45:50.614Z,17.97
2019-01-15T08:48:20.173Z,19.23
2019-01-15T08:50:49.579Z,14.67
2019-01-15T08:53:20.616Z,48.87
2019-01-15T08:55:50.135Z,53.83
2019-01-15T08:58:18.157Z,48.80
2019-01-15T09:00:46.263Z,25.57
2019-01-15T09:03:14.077Z,19.37
2019-01-15T09:05:42.209Z,13.23
2019-01-15T09:08:10.230Z,14.53
2019-01-15T09:10:37.895Z,14.57
2019-01-15T09:13:05.603Z,7.53
2019-01-15T09:15:33.366Z,13.53
2019-01-15T09:20:40.744Z,11.23
2019-01-15T09:23:08.630Z,8.13
2019-01-15T09:25:36.426Z,6.33
2019-01-15T09:28:04.447Z,9.73
2019-01-15T09:30:32.432Z,5.13
2019-01-15T09:33:00.593Z,11.23
2019-01-15T09:35:28.486Z,9.10
2019-01-15T09:37:56.530Z,9.43
2019-01-15T09:40:25.195Z,10.57
2019-01-15T09:42:54.796Z,7.10
2019-01-15T09:45:24.037Z,8.97
2019-01-15T09:48:08.257Z,11.57
2019-01-15T09:50:36.119Z,13.07
2019-01-15T09:53:04.803Z,8.50
2019-01-15T09:55:35.282Z,9.60
2019-01-15T09:58:03.918Z,12.40
2019-01-15T10:00:31.671Z,9.77
2019-01-15T10:02:59.402Z,7.07
2019-01-15T10:05:27.115Z,7.67
2019-01-15T10:07:54.866Z,12.47
2019-01-15T10:10:22.810Z,11.30
2019-01-15T10:12:50.989Z,12.23
2019-01-15T10:15:19.465Z,9.63
2019-01-15T10:17:47.230Z,8.20
2019-01-15T10:20:15.945Z,11.93
2019-01-15T10:22:44.562Z,7.37
2019-01-15T10:25:15.229Z,10.17
2019-01-15T10:27:43.749Z,9.57
2019-01-15T10:30:21.703Z,13.97
2019-01-15T10:33:04.843Z,10.53
2019-01-15T10:36:01.121Z,7.90
2019-01-15T10:38:31.190Z,13.23
2019-01-15T10:40:59.945Z,15.23
2019-01-15T10:43:29.910Z,10.53
2019-01-15T10:45:58.384Z,14.47
2019-01-15T10:48:26.517Z,9.30
2019-01-15T10:50:54.396Z,20.07
2019-01-15T10:53:22.981Z,5.37
2019-01-15T10:55:50.665Z,5.30
2019-01-15T10:58:18.442Z,7.53
2019-01-15T11:00:46.298Z,10.70
2019-01-15T11:03:14.570Z,6.77
2019-01-15T11:05:42.743Z,11.20
2019-01-15T11:08:10.744Z,6.90
2019-01-15T11:10:39.743Z,8.40
2019-01-15T11:13:08.791Z,10.53
2019-01-15T11:15:43.165Z,10.63
2019-01-15T11:18:06.119Z,12.03
2019-01-15T11:20:34.380Z,7.80
2019-01-15T11:23:02.431Z,13.30
2019-01-15T11:25:30.587Z,8.83
2019-01-15T11:27:59.016Z,10.90
2019-01-15T11:30:27.499Z,11.77
2019-01-15T11:32:55.628Z,6.30
2019-01-15T11:35:23.450Z,12.83
2019-01-15T11:37:51.543Z,6.17
2019-01-15T11:40:19.521Z,8.03
2019-01-15T11:42:47.255Z,6.63
2019-01-15T11:45:15.773Z,12.37
2019-01-15T11:47:43.728Z,9.83
2019-01-15T11:50:14.583Z,10.13
2019-01-15T11:52:42.569Z,6.17
2019-01-15T11:55:10.805Z,8.13
2019-01-15T11:57:38.952Z,6.57
2019-01-15T12:00:13.951Z,12.33
2019-01-15T12:03:10.627Z,14.30
2019-01-15T12:06:05.497Z,10.20
2019-01-15T12:08:49.211Z,11.10
2019-01-15T12:11:42.678Z,6.07
2019-01-15T12:14:31.175Z,9.17
2019-01-15T12:17:17.108Z,11.37
2019-01-15T12:20:10.629Z,8.30
2019-01-15T12:22:57.135Z,5.97
2019-01-15T12:25:47.877Z,8.27
2019-01-15T12:28:37.465Z,4.07
2019-01-15T12:31:23.828Z,11.07
2019-01-15T12:34:26.144Z,10.53
2019-01-15T12:37:19.886Z,5.50
2019-01-15T12:40:10.182Z,7.93
2019-01-15T12:42:52.173Z,7.77
2019-01-15T12:45:42.466Z,12.05
2019-01-15T12:48:32.940Z,8.20
2019-01-15T12:51:19.584Z,6.43
2019-01-15T12:54:12.311Z,7.37
2019-01-15T12:57:09.816Z,10.70
2019-01-15T12:59:57.415Z,8.47
2019-01-15T13:02:43.682Z,8.77
2019-01-15T13:05:29.377Z,13.27
2019-01-15T13:08:34.959Z,11.07
2019-01-15T13:11:26.486Z,9.20
2019-01-15T13:14:12.766Z,9.90
2019-01-15T13:17:18.447Z,11.13
2019-01-15T13:20:05.756Z,9.57
2019-01-15T13:23:09.385Z,8.50
2019-01-15T13:25:52.704Z,9.13
2019-01-15T13:28:38.837Z,12.60
2019-01-15T13:31:26.440Z,12.27
2019-01-15T13:34:12.321Z,6.83
2019-01-15T13:36:58.051Z,13.43
2019-01-15T13:39:43.837Z,10.53
2019-01-15T13:42:36.874Z,11.70
2019-01-15T13:45:43.436Z,9.00
2019-01-15T13:48:37.244Z,14.20
2019-01-15T13:51:23.259Z,6.57
2019-01-15T13:54:17.360Z,4.00
2019-01-15T13:57:17.063Z,8.07
2019-01-15T14:00:19.640Z,16.60
2019-01-15T14:03:05.675Z,4.87
2019-01-15T14:05:51.372Z,6.97
2019-01-15T14:08:37.626Z,4.33
2019-01-15T14:11:36.680Z,7.83
2019-01-15T14:14:27.259Z,5.20
2019-01-15T14:17:13.461Z,5.27
2019-01-15T14:20:00.719Z,7.40
2019-01-15T14:22:51.094Z,7.50
2019-01-15T14:25:42.919Z,5.73
2019-01-15T14:28:30.317Z,9.37
2019-01-15T14:31:22.467Z,7.90
2019-01-15T14:34:15.816Z,6.07
2019-01-15T14:36:52.834Z,5.07
2019-01-15T14:39:48.749Z,5.27
2019-01-15T14:42:48.158Z,7.13
2019-01-15T14:45:33.946Z,5.80
2019-01-15T14:48:37.359Z,5.63
2019-01-15T14:51:24.108Z,2.87
2019-01-15T14:54:20.461Z,3.83
2019-01-15T14:57:10.836Z,9.73
2019-01-15T14:59:57.135Z,4.80
2019-01-15T15:02:53.418Z,10.10
2019-01-15T15:05:29.648Z,11.27
2019-01-15T15:08:15.974Z,7.60
2019-01-15T15:11:03.080Z,6.20
2019-01-15T15:13:53.367Z,3.83
2019-01-15T15:16:41.684Z,4.10
2019-01-15T15:19:35.046Z,6.27
2019-01-15T15:22:22.642Z,2.60
2019-01-15T15:25:12.667Z,3.50
2019-01-15T15:27:54.768Z,2.90
2019-01-15T15:30:39.860Z,4.53
2019-01-15T15:33:26.530Z,5.07
2019-01-15T15:36:05.680Z,5.43
2019-01-15T15:38:53.019Z,4.40
2019-01-15T15:41:43.301Z,3.63
2019-01-15T15:44:24.368Z,2.33
2019-01-15T15:47:20.353Z,3.20
2019-01-15T15:50:07.629Z,4.63
2019-01-15T15:52:57.781Z,4.53
2019-01-15T15:55:45.053Z,6.90
2019-01-15T15:58:47.572Z,4.37
2019-01-15T16:01:34.951Z,6.17
2019-01-15T16:04:31.338Z,7.67
2019-01-15T16:07:17.157Z,7.67
2019-01-15T16:10:04.936Z,5.53
2019-01-15T16:12:53.005Z,5.07
2019-01-15T16:15:58.573Z,4.60
2019-01-15T16:18:45.955Z,4.60
2019-01-15T16:21:37.398Z,4.10
2019-01-15T16:24:28.610Z,6.87
2019-01-15T16:27:22.209Z,3.50
2019-01-15T16:30:08.364Z,4.73
2019-01-15T16:32:54.742Z,5.77
2019-01-15T16:35:47.037Z,3.57
2019-01-15T16:38:39.461Z,6.63
2019-01-15T16:41:18.149Z,4.87
2019-01-15T16:44:05.542Z,4.90
2019-01-15T16:46:51.632Z,16.57
2019-01-15T16:49:39.724Z,12.07
2019-01-15T16:52:30.427Z,10.57
2019-01-15T16:55:15.694Z,4.83
2019-01-15T16:57:58.017Z,8.30
2019-01-15T17:00:38.717Z,7.87
2019-01-15T17:03:22.601Z,7.57
2019-01-15T17:06:25.241Z,8.37
2019-01-15T17:09:11.894Z,11.57
2019-01-15T17:12:05.287Z,9.30
2019-01-15T17:14:53.249Z,8.33
2019-01-15T17:17:55.627Z,7.23
2019-01-15T17:20:46.158Z,9.63
2019-01-15T17:23:36.608Z,12.60
2019-01-15T17:26:39.363Z,4.87
2019-01-15T17:29:44.979Z,7.93
2019-01-15T17:32:47.678Z,6.47
2019-01-15T17:35:40.980Z,5.17
2019-01-15T17:38:47.918Z,6.53
2019-01-15T17:41:37.919Z,5.40
2019-01-15T17:44:17.178Z,7.70
2019-01-15T17:47:07.503Z,4.83
2019-01-15T17:49:54.009Z,10.13
2019-01-15T17:52:43.775Z,11.93
2019-01-15T17:55:32.168Z,7.03
2019-01-15T17:58:10.248Z,5.87
2019-01-15T18:00:57.565Z,5.63
2019-01-15T18:03:44.965Z,3.80
2019-01-15T18:06:30.781Z,11.13
2019-01-15T18:09:33.515Z,5.90
2019-01-15T18:12:20.682Z,4.53
2019-01-15T18:15:06.751Z,7.80
2019-01-15T18:17:56.991Z,7.80
2019-01-15T18:20:44.795Z,4.80
2019-01-15T18:23:30.565Z,7.10
2019-01-15T18:26:20.523Z,6.27
2019-01-15T18:29:24.951Z,3.47
2019-01-15T18:32:20.780Z,2.70
2019-01-15T18:35:20.008Z,2.70
2019-01-15T18:38:17.176Z,2.57
2019-01-15T18:41:03.609Z,2.63
2019-01-15T18:43:50.299Z,2.83
2019-01-15T18:46:42.137Z,2.97
2019-01-15T18:49:33.435Z,4.00
2019-01-15T18:52:25.665Z,4.33
2019-01-15T18:55:11.406Z,4.47
2019-01-15T18:58:17.283Z,2.67
2019-01-15T19:01:05.171Z,3.53
2019-01-15T19:03:49.010Z,2.50
2019-01-15T19:06:30.623Z,3.53
2019-01-15T19:09:18.009Z,2.53
2019-01-15T19:12:04.306Z,1.87
2019-01-15T19:14:54.808Z,2.77
2019-01-15T19:17:40.448Z,4.70
2019-01-15T19:20:23.539Z,5.30
2019-01-15T19:23:01.616Z,1.80
2019-01-15T19:25:48.955Z,2.60
2019-01-15T19:28:36.207Z,2.70
2019-01-15T19:31:26.181Z,4.70
2019-01-15T19:34:16.152Z,6.50
2019-01-15T19:37:12.806Z,2.20
2019-01-15T19:39:49.207Z,3.27
2019-01-15T19:42:39.201Z,2.27
2019-01-15T19:45:39.915Z,3.43
2019-01-15T19:48:27.543Z,2.87
2019-01-15T19:51:14.064Z,3.67
2019-01-15T19:54:05.376Z,3.97
2019-01-15T19:56:52.597Z,2.27
2019-01-15T19:59:38.208Z,3.67
2019-01-15T20:02:25.463Z,3.20
2019-01-15T20:05:24.830Z,4.67
2019-01-15T20:08:24.286Z,4.50
2019-01-15T20:11:10.048Z,3.73
2019-01-15T20:13:55.928Z,3.03
2019-01-15T20:16:48.803Z,3.37
2019-01-15T20:19:37.353Z,2.80
2019-01-15T20:22:33.488Z,5.43
2019-01-15T20:25:20.885Z,5.83
2019-01-15T20:28:06.665Z,4.23
2019-01-15T20:30:53.324Z,3.90
2019-01-15T20:33:39.398Z,6.27
2019-01-15T20:36:24.363Z,6.90
2019-01-15T20:39:21.620Z,6.57
2019-01-15T20:42:09.169Z,7.60
2019-01-15T20:45:09.265Z,7.70
2019-01-15T20:47:56.900Z,8.93
2019-01-15T20:50:53.808Z,10.43
2019-01-15T20:53:39.940Z,10.03
2019-01-15T20:56:30.753Z,11.10
2019-01-15T20:59:36.290Z,9.93
2019-01-15T21:02:33.062Z,9.87
2019-01-15T21:05:19.556Z,9.13
2019-01-15T21:08:05.638Z,10.30
2019-01-15T21:10:56.776Z,11.43
2019-01-15T21:13:46.568Z,11.70
2019-01-15T21:16:34.021Z,12.23
2019-01-15T21:19:19.871Z,12.40
2019-01-15T21:22:13.117Z,12.77
2019-01-15T21:24:59.158Z,15.73
2019-01-15T21:27:56.077Z,14.00
2019-01-15T21:30:41.994Z,13.10
2019-01-15T21:33:38.738Z,14.73
2019-01-15T21:36:45.220Z,14.23
2019-01-15T21:39:45.134Z,13.43
2019-01-15T21:42:41.725Z,15.47
2019-01-15T21:45:28.927Z,15.03
2019-01-15T21:48:22.665Z,14.67
2019-01-15T21:51:13.521Z,17.53
2019-01-15T21:54:01.181Z,18.33
2019-01-15T21:56:48.542Z,17.73
2019-01-15T21:59:43.171Z,18.50
2019-01-15T22:02:21.095Z,19.50
2019-01-15T22:05:10.416Z,18.10
2019-01-15T22:08:02.880Z,19.33
2019-01-15T22:10:59.618Z,18.77
2019-01-15T22:13:53.279Z,19.93
2019-01-15T22:16:41.002Z,20.20
2019-01-15T22:19:20.713Z,18.77
2019-01-15T22:22:17.705Z,21.27
2019-01-15T22:25:08.175Z,18.83
2019-01-15T22:27:52.863Z,19.17
2019-01-15T22:30:49.131Z,18.03
2019-01-15T22:33:49.879Z,19.33
2019-01-15T22:36:37.533Z,17.07
2019-01-15T22:39:25.174Z,19.33
2019-01-15T22:42:10.679Z,18.13
2019-01-15T22:45:07.235Z,18.87
2019-01-15T22:47:55.007Z,18.50
2019-01-15T22:50:43.006Z,17.73
2019-01-15T22:53:33.357Z,16.87
2019-01-15T22:56:19.438Z,16.87
2019-01-15T22:59:09.849Z,17.40
2019-01-15T23:02:09.855Z,16.77
2019-01-15T23:04:59.642Z,20.80
2019-01-15T23:07:47.961Z,18.60
2019-01-15T23:10:47.169Z,18.57
2019-01-15T23:13:52.668Z,18.27
2019-01-15T23:16:37.084Z,18.33
2019-01-15T23:19:25.028Z,18.73
2019-01-15T23:22:01.271Z,21.07
2019-01-15T23:24:54.866Z,20.20
2019-01-15T23:27:42.194Z,22.20
2019-01-15T23:30:33.494Z,23.17
2019-01-15T23:33:20.878Z,23.00
2019-01-15T23:36:14.369Z,24.37
2019-01-15T23:39:07.371Z,24.97
2019-01-15T23:41:58.678Z,21.93
2019-01-15T23:44:45.389Z,24.53
2019-01-15T23:47:34.442Z,25.50
2019-01-15T23:50:21.424Z,25.07
2019-01-15T23:53:07.135Z,25.67
2019-01-15T23:56:06.883Z,28.43
2019-01-15T23:58:52.650Z,29.93
